15:28
Airports
History
Links
Donate
Help keep this website running!
PayPal
Bitcoin
This page is community maintained. The information is intended for PC simulator navigation or reference.
Always use approved charts for navigation.
BX2
Fort Nelson/Mobil Sierra
Fort Nelson/Mobil Sierra (BX2)
British Columbia, Canada
(U)
Lat/Lng:58° 50' 3.13" N / 121° 23' 20.4" W
58.834202 / -121.389
Elevation:1860'ft / 567mMSL
ID / ICAO:BX2
Runways:1
Longest:21-03
Concrete 1,529m / 5,016ft
Nearby Weather15:00 GMT 2018-02-19
Nearby weather at CYYE, FORT NELSON located 43.2 nautical miles from BX2
Altimeter: 30.02
Visibility: 30.0 statute miles
Wind: 5 knots (from 200°)
Temp: -18°c / -0°f
Humidity: 77.2%

METAR: CYYE 191500Z 20005KT 30SM SKC M18/M21 A3002 RMK SLP203

(Powered by phpweather)
Nearby VORs <50NM
Nearby NDBs
Runway 21 / 03
Dimensions:1528.9 x 36.6m 5016' x 120'ft
Surface:Concrete
Runway 21 [A]Runway 03 [B]
Heading:145°TH 325°TH
Lat:
Lng:
58° 50' 23.59"N
121° 23' 47.07"W
58° 49' 42.66"N
121° 22' 53.73"W
User Notes and Comments
58° 50' 3.13" N / 121° 23' 20.4" W
Distance To
Airport ID:
Nearby Airports
(U) FORT NELSON 43.2 NM
CYYE ( WX ) W 270°
4 Gordon Field 49.9 NM
CBL3 W 268°
(U) RAINBOW LAKE 75.0 NM
CYOP ESE 108°
(U) ZAMA LAKE 90.5 NM
CFT9 E 80°
4 Chateh 97.4 NM
FE2 E 95°
(C) Trout Lake 110.9 NM
CEU9 N
4 Fort Liard 121.0 NM
CYJF NW 323°
VFR Chart
Flight Planning at SkyVector.com